sensor_id;sensor_type;location;lat;lon;timestamp;P1;durP1;ratioP1;P2;durP2;ratioP2
21727;SDS011;11026;50.560;17.852;2023-07-13T00:01:59;11.20;;;9.13;;
21727;SDS011;11026;50.560;17.852;2023-07-13T00:04:31;12.63;;;9.02;;
21727;SDS011;11026;50.560;17.852;2023-07-13T00:07:00;13.17;;;8.57;;
21727;SDS011;11026;50.560;17.852;2023-07-13T00:09:33;9.00;;;8.10;;
21727;SDS011;11026;50.560;17.852;2023-07-13T00:12:01;10.52;;;8.23;;
21727;SDS011;11026;50.560;17.852;2023-07-13T00:14:29;9.43;;;7.75;;
21727;SDS011;11026;50.560;17.852;2023-07-13T00:17:02;13.43;;;9.00;;
21727;SDS011;11026;50.560;17.852;2023-07-13T00:19:31;11.68;;;7.95;;
21727;SDS011;11026;50.560;17.852;2023-07-13T00:21:59;9.65;;;7.75;;
21727;SDS011;11026;50.560;17.852;2023-07-13T00:24:26;10.13;;;8.10;;
21727;SDS011;11026;50.560;17.852;2023-07-13T00:26:54;12.32;;;7.68;;
21727;SDS011;11026;50.560;17.852;2023-07-13T00:29:22;9.20;;;7.60;;
21727;SDS011;11026;50.560;17.852;2023-07-13T00:31:50;9.45;;;8.18;;
21727;SDS011;11026;50.560;17.852;2023-07-13T00:34:17;9.98;;;7.63;;
21727;SDS011;11026;50.560;17.852;2023-07-13T00:36:44;8.75;;;7.68;;
21727;SDS011;11026;50.560;17.852;2023-07-13T00:39:12;8.48;;;7.38;;
21727;SDS011;11026;50.560;17.852;2023-07-13T00:41:40;13.27;;;8.23;;
21727;SDS011;11026;50.560;17.852;2023-07-13T00:44:11;9.27;;;7.68;;
21727;SDS011;11026;50.560;17.852;2023-07-13T00:46:47;11.57;;;7.97;;
21727;SDS011;11026;50.560;17.852;2023-07-13T00:49:16;13.65;;;8.55;;
21727;SDS011;11026;50.560;17.852;2023-07-13T00:51:52;10.85;;;8.35;;
21727;SDS011;11026;50.560;17.852;2023-07-13T00:54:24;9.98;;;7.70;;
21727;SDS011;11026;50.560;17.852;2023-07-13T00:56:58;9.48;;;7.47;;
21727;SDS011;11026;50.560;17.852;2023-07-13T00:59:29;8.95;;;7.25;;
21727;SDS011;11026;50.560;17.852;2023-07-13T01:01:58;13.32;;;8.25;;
21727;SDS011;11026;50.560;17.852;2023-07-13T01:04:25;11.82;;;7.88;;
21727;SDS011;11026;50.560;17.852;2023-07-13T01:06:55;11.25;;;8.25;;
21727;SDS011;11026;50.560;17.852;2023-07-13T01:09:25;9.27;;;7.53;;
21727;SDS011;11026;50.560;17.852;2023-07-13T01:11:54;11.02;;;7.55;;
21727;SDS011;11026;50.560;17.852;2023-07-13T01:14:21;11.00;;;7.57;;
21727;SDS011;11026;50.560;17.852;2023-07-13T01:16:49;12.45;;;7.68;;
21727;SDS011;11026;50.560;17.852;2023-07-13T01:22:06;10.10;;;8.25;;
21727;SDS011;11026;50.560;17.852;2023-07-13T01:24:44;13.48;;;8.75;;
21727;SDS011;11026;50.560;17.852;2023-07-13T01:27:15;10.63;;;8.18;;
21727;SDS011;11026;50.560;17.852;2023-07-13T01:29:44;13.90;;;8.90;;
21727;SDS011;11026;50.560;17.852;2023-07-13T01:32:16;10.35;;;8.02;;
21727;SDS011;11026;50.560;17.852;2023-07-13T01:34:50;11.55;;;8.30;;
21727;SDS011;11026;50.560;17.852;2023-07-13T01:37:22;15.48;;;8.07;;
21727;SDS011;11026;50.560;17.852;2023-07-13T01:39:51;10.23;;;8.02;;
21727;SDS011;11026;50.560;17.852;2023-07-13T01:42:20;13.18;;;7.80;;
21727;SDS011;11026;50.560;17.852;2023-07-13T01:44:49;11.63;;;8.65;;
21727;SDS011;11026;50.560;17.852;2023-07-13T01:47:16;10.70;;;8.13;;
21727;SDS011;11026;50.560;17.852;2023-07-13T01:49:44;14.23;;;8.63;;
21727;SDS011;11026;50.560;17.852;2023-07-13T01:52:13;11.60;;;8.98;;
21727;SDS011;11026;50.560;17.852;2023-07-13T01:54:40;13.18;;;8.63;;
21727;SDS011;11026;50.560;17.852;2023-07-13T01:57:08;12.88;;;8.55;;
21727;SDS011;11026;50.560;17.852;2023-07-13T01:59:41;18.08;;;9.77;;
21727;SDS011;11026;50.560;17.852;2023-07-13T02:02:09;15.60;;;9.48;;
21727;SDS011;11026;50.560;17.852;2023-07-13T02:07:08;17.27;;;8.65;;
21727;SDS011;11026;50.560;17.852;2023-07-13T02:09:36;17.63;;;9.02;;
21727;SDS011;11026;50.560;17.852;2023-07-13T02:12:03;16.15;;;8.88;;
21727;SDS011;11026;50.560;17.852;2023-07-13T02:14:31;11.38;;;9.13;;
21727;SDS011;11026;50.560;17.852;2023-07-13T02:16:59;18.67;;;9.48;;
21727;SDS011;11026;50.560;17.852;2023-07-13T02:19:26;20.33;;;9.48;;
21727;SDS011;11026;50.560;17.852;2023-07-13T02:21:54;18.63;;;10.15;;
21727;SDS011;11026;50.560;17.852;2023-07-13T02:24:21;20.17;;;10.05;;
21727;SDS011;11026;50.560;17.852;2023-07-13T02:26:49;15.20;;;10.23;;
21727;SDS011;11026;50.560;17.852;2023-07-13T02:29:17;13.23;;;9.60;;
21727;SDS011;11026;50.560;17.852;2023-07-13T02:31:45;16.02;;;9.45;;
21727;SDS011;11026;50.560;17.852;2023-07-13T02:34:12;19.63;;;9.43;;
21727;SDS011;11026;50.560;17.852;2023-07-13T02:36:40;16.92;;;10.52;;
21727;SDS011;11026;50.560;17.852;2023-07-13T02:39:08;14.73;;;11.20;;
21727;SDS011;11026;50.560;17.852;2023-07-13T02:41:44;15.40;;;9.98;;
21727;SDS011;11026;50.560;17.852;2023-07-13T02:44:14;17.65;;;11.40;;
21727;SDS011;11026;50.560;17.852;2023-07-13T02:46:42;16.15;;;11.70;;
21727;SDS011;11026;50.560;17.852;2023-07-13T02:49:10;13.57;;;10.75;;
21727;SDS011;11026;50.560;17.852;2023-07-13T02:51:56;12.98;;;10.27;;
21727;SDS011;11026;50.560;17.852;2023-07-13T02:54:25;13.25;;;10.27;;
21727;SDS011;11026;50.560;17.852;2023-07-13T02:56:53;12.88;;;9.60;;
21727;SDS011;11026;50.560;17.852;2023-07-13T02:59:20;18.38;;;10.32;;
21727;SDS011;11026;50.560;17.852;2023-07-13T03:01:48;12.00;;;9.93;;
21727;SDS011;11026;50.560;17.852;2023-07-13T03:04:16;14.07;;;10.15;;
21727;SDS011;11026;50.560;17.852;2023-07-13T03:06:53;15.80;;;10.38;;
21727;SDS011;11026;50.560;17.852;2023-07-13T03:09:24;14.20;;;11.25;;
21727;SDS011;11026;50.560;17.852;2023-07-13T03:11:54;13.02;;;10.50;;
21727;SDS011;11026;50.560;17.852;2023-07-13T03:14:24;12.50;;;10.98;;
21727;SDS011;11026;50.560;17.852;2023-07-13T03:16:51;12.05;;;10.60;;
21727;SDS011;11026;50.560;17.852;2023-07-13T03:19:21;11.07;;;9.63;;
21727;SDS011;11026;50.560;17.852;2023-07-13T03:21:48;12.00;;;10.27;;
21727;SDS011;11026;50.560;17.852;2023-07-13T03:24:16;11.57;;;9.23;;
21727;SDS011;11026;50.560;17.852;2023-07-13T03:26:43;11.98;;;9.15;;
21727;SDS011;11026;50.560;17.852;2023-07-13T03:29:11;16.73;;;10.60;;
21727;SDS011;11026;50.560;17.852;2023-07-13T03:31:39;13.35;;;10.18;;
21727;SDS011;11026;50.560;17.852;2023-07-13T03:34:07;15.60;;;9.75;;
21727;SDS011;11026;50.560;17.852;2023-07-13T03:36:35;11.55;;;9.40;;
21727;SDS011;11026;50.560;17.852;2023-07-13T03:39:02;13.40;;;10.05;;
21727;SDS011;11026;50.560;17.852;2023-07-13T03:41:30;14.75;;;10.05;;
21727;SDS011;11026;50.560;17.852;2023-07-13T03:43:58;15.27;;;10.25;;
21727;SDS011;11026;50.560;17.852;2023-07-13T03:46:26;17.17;;;11.48;;
21727;SDS011;11026;50.560;17.852;2023-07-13T03:48:54;17.60;;;11.13;;
21727;SDS011;11026;50.560;17.852;2023-07-13T03:51:21;15.40;;;10.95;;
21727;SDS011;11026;50.560;17.852;2023-07-13T03:53:48;15.90;;;10.27;;
21727;SDS011;11026;50.560;17.852;2023-07-13T03:56:18;11.93;;;10.45;;
21727;SDS011;11026;50.560;17.852;2023-07-13T03:58:46;15.10;;;11.13;;
21727;SDS011;11026;50.560;17.852;2023-07-13T04:01:16;13.48;;;10.70;;
21727;SDS011;11026;50.560;17.852;2023-07-13T04:03:46;16.73;;;10.68;;
21727;SDS011;11026;50.560;17.852;2023-07-13T04:06:27;16.35;;;11.07;;
21727;SDS011;11026;50.560;17.852;2023-07-13T04:09:00;14.10;;;9.88;;
21727;SDS011;11026;50.560;17.852;2023-07-13T04:11:32;15.07;;;9.55;;
21727;SDS011;11026;50.560;17.852;2023-07-13T04:14:03;18.95;;;10.70;;
21727;SDS011;11026;50.560;17.852;2023-07-13T04:16:30;18.13;;;10.18;;
21727;SDS011;11026;50.560;17.852;2023-07-13T04:18:58;18.05;;;10.43;;
21727;SDS011;11026;50.560;17.852;2023-07-13T04:21:29;17.92;;;9.57;;
21727;SDS011;11026;50.560;17.852;2023-07-13T04:23:59;18.25;;;10.57;;
21727;SDS011;11026;50.560;17.852;2023-07-13T04:26:27;19.15;;;10.40;;
21727;SDS011;11026;50.560;17.852;2023-07-13T04:31:27;14.60;;;10.00;;
21727;SDS011;11026;50.560;17.852;2023-07-13T04:33:55;18.23;;;10.25;;
21727;SDS011;11026;50.560;17.852;2023-07-13T04:36:24;17.67;;;9.70;;
21727;SDS011;11026;50.560;17.852;2023-07-13T04:38:55;12.20;;;9.27;;
21727;SDS011;11026;50.560;17.852;2023-07-13T04:41:22;11.32;;;9.15;;
21727;SDS011;11026;50.560;17.852;2023-07-13T04:43:49;13.80;;;8.85;;
21727;SDS011;11026;50.560;17.852;2023-07-13T04:46:17;15.50;;;8.98;;
21727;SDS011;11026;50.560;17.852;2023-07-13T04:48:46;13.65;;;8.82;;
21727;SDS011;11026;50.560;17.852;2023-07-13T04:51:19;14.77;;;9.85;;
21727;SDS011;11026;50.560;17.852;2023-07-13T04:53:47;13.18;;;9.20;;
21727;SDS011;11026;50.560;17.852;2023-07-13T04:56:17;12.30;;;8.70;;
21727;SDS011;11026;50.560;17.852;2023-07-13T04:58:52;11.32;;;8.55;;
21727;SDS011;11026;50.560;17.852;2023-07-13T05:03:47;12.00;;;8.57;;
21727;SDS011;11026;50.560;17.852;2023-07-13T05:06:14;10.43;;;7.63;;
21727;SDS011;11026;50.560;17.852;2023-07-13T05:08:41;10.10;;;8.02;;
21727;SDS011;11026;50.560;17.852;2023-07-13T05:11:09;12.68;;;7.82;;
21727;SDS011;11026;50.560;17.852;2023-07-13T05:13:37;11.38;;;8.25;;
21727;SDS011;11026;50.560;17.852;2023-07-13T05:16:05;12.52;;;8.48;;
21727;SDS011;11026;50.560;17.852;2023-07-13T05:18:35;12.25;;;7.90;;
21727;SDS011;11026;50.560;17.852;2023-07-13T05:21:09;8.67;;;7.20;;
21727;SDS011;11026;50.560;17.852;2023-07-13T05:23:38;13.07;;;7.15;;
21727;SDS011;11026;50.560;17.852;2023-07-13T05:26:08;8.65;;;7.47;;
21727;SDS011;11026;50.560;17.852;2023-07-13T05:28:36;9.20;;;7.30;;
21727;SDS011;11026;50.560;17.852;2023-07-13T05:31:04;8.55;;;7.45;;
21727;SDS011;11026;50.560;17.852;2023-07-13T05:33:34;16.60;;;7.90;;
21727;SDS011;11026;50.560;17.852;2023-07-13T05:36:01;13.32;;;8.25;;
21727;SDS011;11026;50.560;17.852;2023-07-13T05:38:30;12.38;;;8.35;;
21727;SDS011;11026;50.560;17.852;2023-07-13T05:40:57;14.77;;;9.07;;
21727;SDS011;11026;50.560;17.852;2023-07-13T05:43:29;13.13;;;9.48;;
21727;SDS011;11026;50.560;17.852;2023-07-13T05:45:56;21.52;;;11.63;;
21727;SDS011;11026;50.560;17.852;2023-07-13T05:48:25;13.82;;;11.02;;
21727;SDS011;11026;50.560;17.852;2023-07-13T05:50:53;14.07;;;9.98;;
21727;SDS011;11026;50.560;17.852;2023-07-13T05:53:21;13.20;;;11.48;;
21727;SDS011;11026;50.560;17.852;2023-07-13T05:55:49;14.15;;;11.63;;
21727;SDS011;11026;50.560;17.852;2023-07-13T05:58:18;16.45;;;12.27;;
21727;SDS011;11026;50.560;17.852;2023-07-13T06:00:46;17.25;;;12.77;;
21727;SDS011;11026;50.560;17.852;2023-07-13T06:03:14;13.80;;;12.40;;
21727;SDS011;11026;50.560;17.852;2023-07-13T06:05:42;13.10;;;11.80;;
21727;SDS011;11026;50.560;17.852;2023-07-13T06:08:10;18.10;;;15.48;;
21727;SDS011;11026;50.560;17.852;2023-07-13T06:10:37;16.63;;;11.88;;
21727;SDS011;11026;50.560;17.852;2023-07-13T06:13:05;18.52;;;12.65;;
21727;SDS011;11026;50.560;17.852;2023-07-13T06:15:32;15.45;;;12.30;;
21727;SDS011;11026;50.560;17.852;2023-07-13T06:18:00;15.32;;;13.63;;
21727;SDS011;11026;50.560;17.852;2023-07-13T06:20:28;16.42;;;14.70;;
21727;SDS011;11026;50.560;17.852;2023-07-13T06:22:57;18.00;;;14.00;;
21727;SDS011;11026;50.560;17.852;2023-07-13T06:25:26;16.48;;;14.60;;
21727;SDS011;11026;50.560;17.852;2023-07-13T06:27:53;15.98;;;12.40;;
21727;SDS011;11026;50.560;17.852;2023-07-13T06:30:20;15.35;;;10.98;;
21727;SDS011;11026;50.560;17.852;2023-07-13T06:32:49;12.05;;;9.68;;
21727;SDS011;11026;50.560;17.852;2023-07-13T06:35:16;15.05;;;10.20;;
21727;SDS011;11026;50.560;17.852;2023-07-13T06:37:44;10.63;;;9.30;;
21727;SDS011;11026;50.560;17.852;2023-07-13T06:40:18;12.55;;;8.55;;
21727;SDS011;11026;50.560;17.852;2023-07-13T06:42:45;14.25;;;9.15;;
21727;SDS011;11026;50.560;17.852;2023-07-13T06:45:13;15.13;;;8.80;;
21727;SDS011;11026;50.560;17.852;2023-07-13T06:47:40;13.63;;;8.23;;
21727;SDS011;11026;50.560;17.852;2023-07-13T06:50:08;11.77;;;7.95;;
21727;SDS011;11026;50.560;17.852;2023-07-13T06:52:36;11.00;;;7.25;;
21727;SDS011;11026;50.560;17.852;2023-07-13T06:55:04;8.70;;;6.15;;
21727;SDS011;11026;50.560;17.852;2023-07-13T06:57:31;5.95;;;4.60;;
21727;SDS011;11026;50.560;17.852;2023-07-13T06:59:58;4.97;;;4.05;;
21727;SDS011;11026;50.560;17.852;2023-07-13T07:02:26;6.10;;;4.45;;
21727;SDS011;11026;50.560;17.852;2023-07-13T07:04:54;7.35;;;3.95;;
21727;SDS011;11026;50.560;17.852;2023-07-13T07:07:24;6.05;;;4.32;;
21727;SDS011;11026;50.560;17.852;2023-07-13T07:09:51;5.30;;;4.32;;
21727;SDS011;11026;50.560;17.852;2023-07-13T07:12:19;9.30;;;4.57;;
21727;SDS011;11026;50.560;17.852;2023-07-13T07:14:46;5.57;;;4.25;;
21727;SDS011;11026;50.560;17.852;2023-07-13T07:17:14;4.60;;;3.85;;
21727;SDS011;11026;50.560;17.852;2023-07-13T07:19:47;6.03;;;4.07;;
21727;SDS011;11026;50.560;17.852;2023-07-13T07:22:15;4.95;;;3.88;;
21727;SDS011;11026;50.560;17.852;2023-07-13T07:24:42;5.78;;;4.53;;
21727;SDS011;11026;50.560;17.852;2023-07-13T07:27:10;6.88;;;4.07;;
21727;SDS011;11026;50.560;17.852;2023-07-13T07:29:40;5.47;;;4.05;;
21727;SDS011;11026;50.560;17.852;2023-07-13T07:32:13;5.77;;;3.73;;
21727;SDS011;11026;50.560;17.852;2023-07-13T07:35:00;5.15;;;4.25;;
21727;SDS011;11026;50.560;17.852;2023-07-13T07:37:28;8.77;;;4.13;;
21727;SDS011;11026;50.560;17.852;2023-07-13T07:39:58;5.22;;;4.10;;
21727;SDS011;11026;50.560;17.852;2023-07-13T07:42:29;7.38;;;3.95;;
21727;SDS011;11026;50.560;17.852;2023-07-13T07:44:56;6.60;;;4.22;;
21727;SDS011;11026;50.560;17.852;2023-07-13T07:47:24;4.70;;;3.70;;
21727;SDS011;11026;50.560;17.852;2023-07-13T07:49:52;5.57;;;4.20;;
21727;SDS011;11026;50.560;17.852;2023-07-13T07:52:19;5.28;;;4.20;;
21727;SDS011;11026;50.560;17.852;2023-07-13T07:54:47;7.10;;;4.35;;
21727;SDS011;11026;50.560;17.852;2023-07-13T07:57:17;7.43;;;4.93;;
21727;SDS011;11026;50.560;17.852;2023-07-13T08:00:04;5.40;;;4.43;;
21727;SDS011;11026;50.560;17.852;2023-07-13T08:02:35;8.40;;;5.20;;
21727;SDS011;11026;50.560;17.852;2023-07-13T08:05:05;8.48;;;5.40;;
21727;SDS011;11026;50.560;17.852;2023-07-13T08:07:37;10.45;;;5.10;;
21727;SDS011;11026;50.560;17.852;2023-07-13T08:10:06;6.22;;;4.47;;
21727;SDS011;11026;50.560;17.852;2023-07-13T08:12:36;7.43;;;4.45;;
21727;SDS011;11026;50.560;17.852;2023-07-13T08:15:09;8.35;;;4.20;;
21727;SDS011;11026;50.560;17.852;2023-07-13T08:17:41;4.40;;;4.00;;
21727;SDS011;11026;50.560;17.852;2023-07-13T08:20:11;6.43;;;3.80;;
21727;SDS011;11026;50.560;17.852;2023-07-13T08:22:38;6.50;;;4.18;;
21727;SDS011;11026;50.560;17.852;2023-07-13T08:25:06;6.93;;;4.60;;
21727;SDS011;11026;50.560;17.852;2023-07-13T08:27:34;5.65;;;4.20;;
21727;SDS011;11026;50.560;17.852;2023-07-13T08:30:03;6.53;;;4.45;;
21727;SDS011;11026;50.560;17.852;2023-07-13T08:32:32;6.65;;;4.30;;
21727;SDS011;11026;50.560;17.852;2023-07-13T08:35:00;8.10;;;4.95;;
21727;SDS011;11026;50.560;17.852;2023-07-13T08:37:27;6.07;;;4.35;;
21727;SDS011;11026;50.560;17.852;2023-07-13T08:39:55;5.13;;;4.40;;
21727;SDS011;11026;50.560;17.852;2023-07-13T08:42:39;5.15;;;4.13;;
21727;SDS011;11026;50.560;17.852;2023-07-13T08:45:15;5.95;;;4.35;;
21727;SDS011;11026;50.560;17.852;2023-07-13T08:48:17;6.13;;;4.97;;
21727;SDS011;11026;50.560;17.852;2023-07-13T08:53:40;14.48;;;5.78;;
21727;SDS011;11026;50.560;17.852;2023-07-13T08:56:24;7.15;;;4.88;;
21727;SDS011;11026;50.560;17.852;2023-07-13T08:58:58;5.07;;;4.18;;
21727;SDS011;11026;50.560;17.852;2023-07-13T09:04:28;5.63;;;4.70;;
21727;SDS011;11026;50.560;17.852;2023-07-13T09:07:05;6.00;;;4.88;;
21727;SDS011;11026;50.560;17.852;2023-07-13T09:09:48;6.80;;;5.47;;
21727;SDS011;11026;50.560;17.852;2023-07-13T09:18:04;6.25;;;4.53;;
21727;SDS011;11026;50.560;17.852;2023-07-13T09:23:15;6.13;;;4.90;;
21727;SDS011;11026;50.560;17.852;2023-07-13T09:25:50;6.00;;;4.45;;
21727;SDS011;11026;50.560;17.852;2023-07-13T09:28:29;4.60;;;4.03;;
21727;SDS011;11026;50.560;17.852;2023-07-13T09:33:35;5.03;;;3.78;;
21727;SDS011;11026;50.560;17.852;2023-07-13T09:36:05;4.53;;;3.67;;
21727;SDS011;11026;50.560;17.852;2023-07-13T09:38:55;3.97;;;3.58;;
21727;SDS011;11026;50.560;17.852;2023-07-13T09:44:31;4.85;;;3.83;;
21727;SDS011;11026;50.560;17.852;2023-07-13T09:47:02;4.43;;;3.53;;
21727;SDS011;11026;50.560;17.852;2023-07-13T09:49:34;4.20;;;3.80;;
21727;SDS011;11026;50.560;17.852;2023-07-13T09:52:07;3.65;;;3.35;;
21727;SDS011;11026;50.560;17.852;2023-07-13T09:54:38;5.18;;;4.32;;
21727;SDS011;11026;50.560;17.852;2023-07-13T10:00:00;4.63;;;3.50;;
21727;SDS011;11026;50.560;17.852;2023-07-13T10:02:31;4.35;;;3.78;;
21727;SDS011;11026;50.560;17.852;2023-07-13T10:05:02;4.45;;;3.25;;
21727;SDS011;11026;50.560;17.852;2023-07-13T10:07:37;5.10;;;3.33;;
21727;SDS011;11026;50.560;17.852;2023-07-13T10:10:16;4.03;;;3.25;;
21727;SDS011;11026;50.560;17.852;2023-07-13T10:12:48;4.63;;;3.40;;
21727;SDS011;11026;50.560;17.852;2023-07-13T10:15:18;5.10;;;3.63;;
21727;SDS011;11026;50.560;17.852;2023-07-13T10:17:52;4.50;;;4.10;;
21727;SDS011;11026;50.560;17.852;2023-07-13T10:20:22;3.65;;;3.35;;
21727;SDS011;11026;50.560;17.852;2023-07-13T10:25:26;5.50;;;4.95;;
21727;SDS011;11026;50.560;17.852;2023-07-13T10:28:52;5.60;;;5.03;;
21727;SDS011;11026;50.560;17.852;2023-07-13T10:31:06;7.87;;;6.07;;
21727;SDS011;11026;50.560;17.852;2023-07-13T10:33:39;5.88;;;5.38;;
21727;SDS011;11026;50.560;17.852;2023-07-13T10:38:53;5.90;;;5.40;;
21727;SDS011;11026;50.560;17.852;2023-07-13T10:41:26;6.10;;;5.60;;
21727;SDS011;11026;50.560;17.852;2023-07-13T10:43:56;8.85;;;6.47;;
21727;SDS011;11026;50.560;17.852;2023-07-13T10:46:25;7.05;;;6.45;;
21727;SDS011;11026;50.560;17.852;2023-07-13T10:48:58;6.38;;;5.78;;
21727;SDS011;11026;50.560;17.852;2023-07-13T10:54:14;5.60;;;5.10;;
21727;SDS011;11026;50.560;17.852;2023-07-13T10:56:46;5.22;;;4.82;;
21727;SDS011;11026;50.560;17.852;2023-07-13T10:59:18;6.53;;;4.75;;
21727;SDS011;11026;50.560;17.852;2023-07-13T11:01:56;5.88;;;5.30;;
21727;SDS011;11026;50.560;17.852;2023-07-13T11:04:43;4.80;;;4.40;;
21727;SDS011;11026;50.560;17.852;2023-07-13T11:18:52;5.13;;;4.60;;
21727;SDS011;11026;50.560;17.852;2023-07-13T11:28:04;5.68;;;4.85;;
21727;SDS011;11026;50.560;17.852;2023-07-13T11:41:26;3.42;;;3.13;;
21727;SDS011;11026;50.560;17.852;2023-07-13T11:44:07;4.25;;;3.25;;
21727;SDS011;11026;50.560;17.852;2023-07-13T11:46:43;3.33;;;2.97;;
21727;SDS011;11026;50.560;17.852;2023-07-13T11:49:16;2.53;;;2.33;;
21727;SDS011;11026;50.560;17.852;2023-07-13T11:51:45;3.65;;;2.65;;
21727;SDS011;11026;50.560;17.852;2023-07-13T11:57:17;4.35;;;3.90;;
21727;SDS011;11026;50.560;17.852;2023-07-13T12:04:57;3.67;;;3.13;;
21727;SDS011;11026;50.560;17.852;2023-07-13T12:07:27;8.15;;;7.13;;
21727;SDS011;11026;50.560;17.852;2023-07-13T12:10:01;3.90;;;3.50;;
21727;SDS011;11026;50.560;17.852;2023-07-13T12:12:47;5.38;;;4.30;;
21727;SDS011;11026;50.560;17.852;2023-07-13T12:15:20;4.20;;;3.50;;
21727;SDS011;11026;50.560;17.852;2023-07-13T12:17:49;3.25;;;2.95;;
21727;SDS011;11026;50.560;17.852;2023-07-13T12:20:19;5.32;;;4.50;;
21727;SDS011;11026;50.560;17.852;2023-07-13T12:22:50;3.72;;;2.70;;
21727;SDS011;11026;50.560;17.852;2023-07-13T12:25:24;4.30;;;2.70;;
21727;SDS011;11026;50.560;17.852;2023-07-13T12:27:53;10.38;;;6.45;;
21727;SDS011;11026;50.560;17.852;2023-07-13T12:33:06;4.30;;;3.20;;
21727;SDS011;11026;50.560;17.852;2023-07-13T12:38:15;4.55;;;3.55;;
21727;SDS011;11026;50.560;17.852;2023-07-13T12:40:50;3.90;;;2.75;;
21727;SDS011;11026;50.560;17.852;2023-07-13T12:43:20;3.95;;;2.30;;
21727;SDS011;11026;50.560;17.852;2023-07-13T12:45:57;2.42;;;1.73;;
21727;SDS011;11026;50.560;17.852;2023-07-13T12:48:47;3.40;;;1.80;;
21727;SDS011;11026;50.560;17.852;2023-07-13T12:51:34;1.65;;;1.55;;
21727;SDS011;11026;50.560;17.852;2023-07-13T12:54:21;2.90;;;2.00;;
21727;SDS011;11026;50.560;17.852;2023-07-13T12:56:50;5.45;;;3.30;;
21727;SDS011;11026;50.560;17.852;2023-07-13T12:59:21;11.73;;;7.72;;
21727;SDS011;11026;50.560;17.852;2023-07-13T13:01:49;2.25;;;2.05;;
21727;SDS011;11026;50.560;17.852;2023-07-13T13:04:18;2.17;;;1.90;;
21727;SDS011;11026;50.560;17.852;2023-07-13T13:07:00;2.63;;;1.90;;
21727;SDS011;11026;50.560;17.852;2023-07-13T13:09:34;2.13;;;1.90;;
21727;SDS011;11026;50.560;17.852;2023-07-13T13:12:01;2.38;;;1.90;;
21727;SDS011;11026;50.560;17.852;2023-07-13T13:14:29;2.03;;;1.83;;
21727;SDS011;11026;50.560;17.852;2023-07-13T13:16:57;4.72;;;1.80;;
21727;SDS011;11026;50.560;17.852;2023-07-13T13:19:30;2.42;;;1.80;;
21727;SDS011;11026;50.560;17.852;2023-07-13T13:26:56;2.53;;;1.88;;
21727;SDS011;11026;50.560;17.852;2023-07-13T13:29:24;4.00;;;3.70;;
21727;SDS011;11026;50.560;17.852;2023-07-13T13:31:53;2.85;;;2.10;;
21727;SDS011;11026;50.560;17.852;2023-07-13T13:34:23;2.28;;;2.08;;
21727;SDS011;11026;50.560;17.852;2023-07-13T13:36:52;4.80;;;4.22;;
21727;SDS011;11026;50.560;17.852;2023-07-13T13:39:28;3.63;;;3.33;;
21727;SDS011;11026;50.560;17.852;2023-07-13T13:42:00;4.45;;;2.25;;
21727;SDS011;11026;50.560;17.852;2023-07-13T13:44:28;2.75;;;2.15;;
21727;SDS011;11026;50.560;17.852;2023-07-13T13:46:55;3.65;;;2.10;;
21727;SDS011;11026;50.560;17.852;2023-07-13T13:49:26;3.08;;;1.88;;
21727;SDS011;11026;50.560;17.852;2023-07-13T13:51:55;2.88;;;1.98;;
21727;SDS011;11026;50.560;17.852;2023-07-13T13:54:23;2.28;;;1.92;;
21727;SDS011;11026;50.560;17.852;2023-07-13T13:56:58;5.30;;;2.20;;
21727;SDS011;11026;50.560;17.852;2023-07-13T13:59:33;3.42;;;2.05;;
21727;SDS011;11026;50.560;17.852;2023-07-13T14:05:03;5.85;;;2.30;;
21727;SDS011;11026;50.560;17.852;2023-07-13T14:07:30;3.47;;;2.10;;
21727;SDS011;11026;50.560;17.852;2023-07-13T14:09:58;5.32;;;2.00;;
21727;SDS011;11026;50.560;17.852;2023-07-13T14:12:28;3.03;;;2.17;;
21727;SDS011;11026;50.560;17.852;2023-07-13T14:14:56;3.25;;;2.28;;
21727;SDS011;11026;50.560;17.852;2023-07-13T14:17:26;4.88;;;2.00;;
21727;SDS011;11026;50.560;17.852;2023-07-13T14:22:24;4.45;;;2.20;;
21727;SDS011;11026;50.560;17.852;2023-07-13T14:24:55;5.50;;;2.10;;
21727;SDS011;11026;50.560;17.852;2023-07-13T14:27:25;3.30;;;2.10;;
21727;SDS011;11026;50.560;17.852;2023-07-13T14:29:53;4.82;;;2.50;;
21727;SDS011;11026;50.560;17.852;2023-07-13T14:32:21;4.03;;;2.53;;
21727;SDS011;11026;50.560;17.852;2023-07-13T14:34:49;2.55;;;1.80;;
21727;SDS011;11026;50.560;17.852;2023-07-13T14:37:18;3.13;;;1.83;;
21727;SDS011;11026;50.560;17.852;2023-07-13T14:39:47;3.15;;;1.80;;
21727;SDS011;11026;50.560;17.852;2023-07-13T14:42:18;3.85;;;2.30;;
21727;SDS011;11026;50.560;17.852;2023-07-13T14:44:48;2.63;;;1.95;;
21727;SDS011;11026;50.560;17.852;2023-07-13T14:47:22;5.80;;;2.45;;
21727;SDS011;11026;50.560;17.852;2023-07-13T14:49:51;4.18;;;2.15;;
21727;SDS011;11026;50.560;17.852;2023-07-13T14:52:21;3.90;;;1.92;;
21727;SDS011;11026;50.560;17.852;2023-07-13T14:54:53;3.25;;;2.30;;
21727;SDS011;11026;50.560;17.852;2023-07-13T14:57:21;3.83;;;1.95;;
21727;SDS011;11026;50.560;17.852;2023-07-13T14:59:50;2.33;;;1.70;;
21727;SDS011;11026;50.560;17.852;2023-07-13T15:02:21;2.25;;;1.92;;
21727;SDS011;11026;50.560;17.852;2023-07-13T15:05:01;3.10;;;1.88;;
21727;SDS011;11026;50.560;17.852;2023-07-13T15:07:29;4.10;;;1.80;;
21727;SDS011;11026;50.560;17.852;2023-07-13T15:10:32;2.60;;;1.70;;
21727;SDS011;11026;50.560;17.852;2023-07-13T15:13:28;3.13;;;1.75;;
21727;SDS011;11026;50.560;17.852;2023-07-13T15:15:50;2.00;;;1.85;;
21727;SDS011;11026;50.560;17.852;2023-07-13T15:18:22;4.45;;;1.60;;
21727;SDS011;11026;50.560;17.852;2023-07-13T15:23:23;4.10;;;1.63;;
21727;SDS011;11026;50.560;17.852;2023-07-13T15:25:50;2.15;;;1.40;;
21727;SDS011;11026;50.560;17.852;2023-07-13T15:28:18;1.45;;;1.35;;
21727;SDS011;11026;50.560;17.852;2023-07-13T15:30:46;3.72;;;1.30;;
21727;SDS011;11026;50.560;17.852;2023-07-13T15:33:16;2.53;;;1.27;;
21727;SDS011;11026;50.560;17.852;2023-07-13T15:36:02;2.20;;;1.40;;
21727;SDS011;11026;50.560;17.852;2023-07-13T15:38:32;1.77;;;1.50;;
21727;SDS011;11026;50.560;17.852;2023-07-13T15:41:26;1.30;;;1.20;;
21727;SDS011;11026;50.560;17.852;2023-07-13T15:43:55;2.90;;;1.48;;
21727;SDS011;11026;50.560;17.852;2023-07-13T15:46:25;3.00;;;1.27;;
21727;SDS011;11026;50.560;17.852;2023-07-13T15:48:56;2.28;;;1.30;;
21727;SDS011;11026;50.560;17.852;2023-07-13T15:51:26;1.80;;;1.50;;
21727;SDS011;11026;50.560;17.852;2023-07-13T15:53:57;1.63;;;1.52;;
21727;SDS011;11026;50.560;17.852;2023-07-13T15:56:34;1.50;;;1.30;;
21727;SDS011;11026;50.560;17.852;2023-07-13T15:59:14;2.60;;;1.70;;
21727;SDS011;11026;50.560;17.852;2023-07-13T16:01:42;4.18;;;1.40;;
21727;SDS011;11026;50.560;17.852;2023-07-13T16:04:14;3.15;;;1.40;;
21727;SDS011;11026;50.560;17.852;2023-07-13T16:06:42;3.72;;;1.50;;
21727;SDS011;11026;50.560;17.852;2023-07-13T16:09:17;2.20;;;1.42;;
21727;SDS011;11026;50.560;17.852;2023-07-13T16:11:47;2.72;;;1.40;;
21727;SDS011;11026;50.560;17.852;2023-07-13T16:14:17;4.00;;;1.65;;
21727;SDS011;11026;50.560;17.852;2023-07-13T16:16:49;1.90;;;1.60;;
21727;SDS011;11026;50.560;17.852;2023-07-13T16:19:17;2.03;;;1.50;;
21727;SDS011;11026;50.560;17.852;2023-07-13T16:21:46;2.10;;;1.33;;
21727;SDS011;11026;50.560;17.852;2023-07-13T16:24:17;2.35;;;1.52;;